createdAt,value
2019-04-05T00:00:40.186Z,96.30
2019-04-05T00:01:40.157Z,95.30
2019-04-05T00:02:40.128Z,98.10
2019-04-05T00:03:40.097Z,98.70
2019-04-05T00:04:40.071Z,95.50
2019-04-05T00:05:40.042Z,96.30
2019-04-05T00:06:40.012Z,97.80
2019-04-05T00:07:39.984Z,99.00
2019-04-05T00:08:39.957Z,99.90
2019-04-05T00:09:39.931Z,96.70
2019-04-05T00:10:39.898Z,99.10
2019-04-05T00:11:39.871Z,99.30
2019-04-05T00:12:39.839Z,96.90
2019-04-05T00:13:39.808Z,99.60
2019-04-05T00:14:39.779Z,98.90
2019-04-05T00:15:39.751Z,100.80
2019-04-05T00:16:39.723Z,94.40
2019-04-05T00:17:39.693Z,96.30
2019-04-05T00:18:39.665Z,96.20
2019-04-05T00:19:39.638Z,100.40
2019-04-05T00:20:39.607Z,99.70
2019-04-05T00:21:39.578Z,94.70
2019-04-05T00:22:39.548Z,95.50
2019-04-05T00:23:39.519Z,98.80
2019-04-05T00:24:39.491Z,96.30
2019-04-05T00:25:39.465Z,96.30
2019-04-05T00:26:39.432Z,98.10
2019-04-05T00:27:39.403Z,94.50
2019-04-05T00:28:39.372Z,99.00
2019-04-05T00:29:39.347Z,98.20
2019-04-05T00:30:39.317Z,97.70
2019-04-05T00:31:39.285Z,101.00
2019-04-05T00:32:39.258Z,101.70
2019-04-05T00:33:39.228Z,106.00
2019-04-05T00:34:39.201Z,100.30
2019-04-05T00:35:39.170Z,102.90
2019-04-05T00:36:39.142Z,107.00
2019-04-05T00:37:39.113Z,107.60
2019-04-05T00:38:39.085Z,113.30
2019-04-05T00:39:39.056Z,111.60
2019-04-05T00:40:39.026Z,107.40
2019-04-05T00:41:39.000Z,108.90
2019-04-05T00:42:38.968Z,111.30
2019-04-05T00:43:38.939Z,111.90
2019-04-05T00:44:38.908Z,113.40
2019-04-05T00:45:38.885Z,116.10
2019-04-05T00:46:38.850Z,113.60
2019-04-05T00:47:38.822Z,108.90
2019-04-05T00:48:38.792Z,107.60
2019-04-05T00:49:38.764Z,110.70
2019-04-05T00:50:38.739Z,111.80
2019-04-05T00:51:38.704Z,114.70
2019-04-05T00:52:38.677Z,109.70
2019-04-05T00:53:38.646Z,103.70
2019-04-05T00:54:38.618Z,109.20
2019-04-05T00:55:38.588Z,111.60
2019-04-05T00:56:38.562Z,110.40
2019-04-05T00:57:38.531Z,111.20
2019-04-05T00:58:38.501Z,106.50
2019-04-05T00:59:38.473Z,99.30
2019-04-05T01:00:38.443Z,109.00
2019-04-05T01:01:38.413Z,106.30
2019-04-05T01:02:38.385Z,107.60
2019-04-05T01:03:38.356Z,99.20
2019-04-05T01:04:38.325Z,104.40
2019-04-05T01:05:38.296Z,96.20
2019-04-05T01:06:38.266Z,96.80
2019-04-05T01:07:38.238Z,98.50
2019-04-05T01:08:38.210Z,105.10
2019-04-05T01:09:38.179Z,107.70
2019-04-05T01:10:38.149Z,99.60
2019-04-05T01:11:38.122Z,101.50
2019-04-05T01:12:38.093Z,101.20
2019-04-05T01:13:38.063Z,99.00
2019-04-05T01:14:38.033Z,97.00
2019-04-05T01:15:41.123Z,99.20
2019-04-05T01:16:37.977Z,96.50
2019-04-05T01:17:37.956Z,97.90
2019-04-05T01:18:37.919Z,96.70
2019-04-05T01:19:37.887Z,93.10
2019-04-05T01:20:37.861Z,91.50
2019-04-05T01:21:37.830Z,95.70
2019-04-05T01:22:37.804Z,95.40
2019-04-05T01:23:37.771Z,91.10
2019-04-05T01:24:37.746Z,96.00
2019-04-05T01:25:37.715Z,95.30
2019-04-05T01:26:37.684Z,94.30
2019-04-05T01:27:37.656Z,92.20
2019-04-05T01:28:37.627Z,89.60
2019-04-05T01:29:37.597Z,90.30
2019-04-05T01:30:37.570Z,91.40
2019-04-05T01:31:37.540Z,91.80
2019-04-05T01:32:37.513Z,93.20
2019-04-05T01:33:37.482Z,93.30
2019-04-05T01:34:37.455Z,92.80
2019-04-05T01:35:37.426Z,96.00
2019-04-05T01:36:37.397Z,92.70
2019-04-05T01:37:37.366Z,90.40
2019-04-05T01:38:37.340Z,93.60
2019-04-05T01:39:37.311Z,94.70
2019-04-05T01:40:37.283Z,94.00
2019-04-05T01:41:37.254Z,93.40
2019-04-05T01:42:37.225Z,91.30
2019-04-05T01:43:37.197Z,96.10
2019-04-05T01:44:37.169Z,91.00
2019-04-05T01:45:37.138Z,93.20
2019-04-05T01:46:37.112Z,91.50
2019-04-05T01:47:37.084Z,94.50
2019-04-05T01:48:37.053Z,97.50
2019-04-05T01:49:37.025Z,94.00
2019-04-05T01:50:36.997Z,97.50
2019-04-05T01:51:36.967Z,95.40
2019-04-05T01:52:36.939Z,94.60
2019-04-05T01:53:36.908Z,94.20
2019-04-05T01:54:36.881Z,92.10
2019-04-05T01:55:36.853Z,96.70
2019-04-05T01:56:36.825Z,98.90
2019-04-05T01:57:36.794Z,99.50
2019-04-05T01:58:36.768Z,102.00
2019-04-05T01:59:36.739Z,96.70
2019-04-05T02:00:36.711Z,94.50
2019-04-05T02:01:36.682Z,98.10
2019-04-05T02:02:36.652Z,99.40
2019-04-05T02:03:36.624Z,97.30
2019-04-05T02:04:36.596Z,99.40
2019-04-05T02:05:36.566Z,100.70
2019-04-05T02:06:36.538Z,104.20
2019-04-05T02:07:36.509Z,105.30
2019-04-05T02:08:36.483Z,102.10
2019-04-05T02:09:36.452Z,104.10
2019-04-05T02:10:36.424Z,101.80
2019-04-05T02:11:36.395Z,102.70
2019-04-05T02:12:36.366Z,104.00
2019-04-05T02:13:36.338Z,100.40
2019-04-05T02:14:36.311Z,104.90
2019-04-05T02:15:36.280Z,108.50
2019-04-05T02:16:36.252Z,108.70
2019-04-05T02:17:36.228Z,110.10
2019-04-05T02:18:36.194Z,100.70
2019-04-05T02:19:36.167Z,105.80
2019-04-05T02:20:36.138Z,104.50
2019-04-05T02:21:36.109Z,94.20
2019-04-05T02:22:36.080Z,107.30
2019-04-05T02:23:36.051Z,111.40
2019-04-05T02:24:36.024Z,107.90
2019-04-05T02:25:35.993Z,109.40
2019-04-05T02:26:35.966Z,110.60
2019-04-05T02:27:35.939Z,107.50
2019-04-05T02:28:35.910Z,107.30
2019-04-05T02:29:35.879Z,108.50
2019-04-05T02:30:35.852Z,109.70
2019-04-05T02:31:35.824Z,109.40
2019-04-05T02:32:35.807Z,107.90
2019-04-05T02:33:35.770Z,104.70
2019-04-05T02:34:35.746Z,110.30
2019-04-05T02:35:38.965Z,105.30
2019-04-05T02:36:35.693Z,107.30
2019-04-05T02:37:35.663Z,113.90
2019-04-05T02:38:35.625Z,110.70
2019-04-05T02:39:35.599Z,110.20
2019-04-05T02:40:35.576Z,106.80
2019-04-05T02:41:35.547Z,111.20
2019-04-05T02:42:35.508Z,112.70
2019-04-05T02:43:35.479Z,114.40
2019-04-05T02:44:35.452Z,108.40
2019-04-05T02:45:35.423Z,108.00
2019-04-05T02:46:35.398Z,110.40
2019-04-05T02:47:35.362Z,109.20
2019-04-05T02:48:35.343Z,109.20
2019-04-05T02:49:35.312Z,107.80
2019-04-05T02:50:35.277Z,106.40
2019-04-05T02:51:35.250Z,102.20
2019-04-05T02:52:35.222Z,98.40
2019-04-05T02:53:35.192Z,104.60
2019-04-05T02:54:35.164Z,112.10
2019-04-05T02:55:35.135Z,107.30
2019-04-05T02:56:35.107Z,109.10
2019-04-05T02:57:35.080Z,105.10
2019-04-05T02:58:35.049Z,107.40
2019-04-05T02:59:35.021Z,106.10
2019-04-05T03:00:34.999Z,107.40
2019-04-05T03:01:34.962Z,107.60
2019-04-05T03:02:34.934Z,104.70
2019-04-05T03:03:34.904Z,104.00
2019-04-05T03:04:34.877Z,104.60
2019-04-05T03:05:34.848Z,108.00
2019-04-05T03:06:34.817Z,108.50
2019-04-05T03:07:34.794Z,111.80
2019-04-05T03:08:34.763Z,110.10
2019-04-05T03:09:34.731Z,110.80
2019-04-05T03:10:34.707Z,104.80
2019-04-05T03:11:34.673Z,104.70
2019-04-05T03:12:34.649Z,107.40
2019-04-05T03:13:34.623Z,111.00
2019-04-05T03:14:34.590Z,105.90
2019-04-05T03:15:34.561Z,106.80
2019-04-05T03:16:41.140Z,109.60
2019-04-05T03:17:34.502Z,106.20
2019-04-05T03:18:34.500Z,108.60
2019-04-05T03:19:34.449Z,107.00
2019-04-05T03:20:34.417Z,111.00
2019-04-05T03:21:34.388Z,109.20
2019-04-05T03:22:34.360Z,112.00
2019-04-05T03:23:34.330Z,109.50
2019-04-05T03:24:34.304Z,113.30
2019-04-05T03:25:34.275Z,110.90
2019-04-05T03:26:34.248Z,108.70
2019-04-05T03:27:34.221Z,110.00
2019-04-05T03:28:34.188Z,105.60
2019-04-05T03:29:34.162Z,105.60
2019-04-05T03:30:34.132Z,108.70
2019-04-05T03:31:34.103Z,112.00
2019-04-05T03:32:34.075Z,111.40
2019-04-05T03:33:34.044Z,111.00
2019-04-05T03:34:34.030Z,108.80
2019-04-05T03:35:33.990Z,103.00
2019-04-05T03:36:33.961Z,103.00
2019-04-05T03:37:33.931Z,110.60
2019-04-05T03:38:33.902Z,109.90
2019-04-05T03:39:33.874Z,108.40
2019-04-05T03:40:33.844Z,109.50
2019-04-05T03:41:33.818Z,107.70
2019-04-05T03:42:33.785Z,109.20
2019-04-05T03:43:33.760Z,109.50
2019-04-05T03:44:33.730Z,111.40
2019-04-05T03:45:33.703Z,108.70
2019-04-05T03:46:33.673Z,106.50
2019-04-05T03:47:33.646Z,108.00
2019-04-05T03:48:33.617Z,108.40
2019-04-05T03:49:33.588Z,107.40
2019-04-05T03:50:33.564Z,104.30
2019-04-05T03:51:33.536Z,109.50
2019-04-05T03:52:33.502Z,108.10
2019-04-05T03:53:33.474Z,107.00
2019-04-05T03:54:33.446Z,108.30
2019-04-05T03:55:33.416Z,105.60
2019-04-05T03:56:33.453Z,102.60
2019-04-05T03:57:33.366Z,110.10
2019-04-05T03:58:33.334Z,105.90
2019-04-05T03:59:33.305Z,103.40
2019-04-05T04:00:33.276Z,106.30
2019-04-05T04:01:33.247Z,108.40
2019-04-05T04:02:33.231Z,103.20
2019-04-05T04:03:33.190Z,107.90
2019-04-05T04:04:33.160Z,105.90
2019-04-05T04:05:33.131Z,103.30
2019-04-05T04:06:33.107Z,105.50
2019-04-05T04:07:33.078Z,105.40
2019-04-05T04:08:33.060Z,107.50
2019-04-05T04:09:33.016Z,103.30
2019-04-05T04:10:32.990Z,106.40
2019-04-05T04:11:32.961Z,103.60
2019-04-05T04:12:32.934Z,107.80
2019-04-05T04:13:32.905Z,108.60
2019-04-05T04:14:32.877Z,107.50
2019-04-05T04:15:32.848Z,105.70
2019-04-05T04:16:32.835Z,105.80
2019-04-05T04:17:32.789Z,107.00
2019-04-05T04:18:32.765Z,104.30
2019-04-05T04:19:32.735Z,108.80
2019-04-05T04:20:32.705Z,101.60
2019-04-05T04:21:32.681Z,105.80
2019-04-05T04:22:32.651Z,107.60
2019-04-05T04:23:32.621Z,108.40
2019-04-05T04:24:32.595Z,105.70
2019-04-05T04:25:32.568Z,107.20
2019-04-05T04:26:32.534Z,105.70
2019-04-05T04:27:32.521Z,109.70
2019-04-05T04:28:32.492Z,109.20
2019-04-05T04:29:32.451Z,109.00
2019-04-05T04:30:32.423Z,106.30
2019-04-05T04:31:32.394Z,109.90
2019-04-05T04:32:32.364Z,107.60
2019-04-05T04:33:32.348Z,106.70
2019-04-05T04:34:32.338Z,106.00
2019-04-05T04:35:32.279Z,107.60
2019-04-05T04:36:32.253Z,105.80
2019-04-05T04:37:32.224Z,105.50
2019-04-05T04:38:32.208Z,106.00
2019-04-05T04:39:32.169Z,102.40
2019-04-05T04:40:32.139Z,104.80
2019-04-05T04:41:32.320Z,105.40
2019-04-05T04:42:32.090Z,105.50
2019-04-05T04:43:32.055Z,102.20
2019-04-05T04:44:32.029Z,104.10
2019-04-05T04:45:31.998Z,104.30
2019-04-05T04:46:31.969Z,103.90
2019-04-05T04:47:31.943Z,103.30
2019-04-05T04:48:31.915Z,102.50
2019-04-05T04:49:31.890Z,100.80
2019-04-05T04:50:31.857Z,101.50
2019-04-05T04:51:31.829Z,106.90
2019-04-05T04:52:31.801Z,103.20
2019-04-05T04:53:31.773Z,99.50
2019-04-05T04:54:31.746Z,102.10
2019-04-05T04:55:31.718Z,105.00
2019-04-05T04:56:31.692Z,103.20
2019-04-05T04:57:31.659Z,104.00
2019-04-05T04:58:31.632Z,96.90
2019-04-05T04:59:31.606Z,102.10
2019-04-05T05:00:31.577Z,99.00
2019-04-05T05:01:31.549Z,102.60
2019-04-05T05:02:31.522Z,103.10
2019-04-05T05:03:31.494Z,103.60
2019-04-05T05:04:31.466Z,104.10
2019-04-05T05:05:31.436Z,107.00
2019-04-05T05:06:31.410Z,102.10
2019-04-05T05:07:31.381Z,99.50
2019-04-05T05:08:31.352Z,100.00
2019-04-05T05:09:31.326Z,100.90
2019-04-05T05:10:31.298Z,100.70
2019-04-05T05:11:31.270Z,101.00
2019-04-05T05:12:31.243Z,99.90
2019-04-05T05:13:31.214Z,99.70
2019-04-05T05:14:31.185Z,101.30
2019-04-05T05:15:31.158Z,98.80
2019-04-05T05:16:31.132Z,102.90
2019-04-05T05:17:38.391Z,102.70
2019-04-05T05:18:31.075Z,101.30
2019-04-05T05:19:31.045Z,98.50
2019-04-05T05:20:31.018Z,98.30
2019-04-05T05:21:30.988Z,100.40
2019-04-05T05:22:30.964Z,96.30
2019-04-05T05:23:30.933Z,101.70
2019-04-05T05:24:31.034Z,98.20
2019-04-05T05:25:30.876Z,97.70
2019-04-05T05:26:30.898Z,101.00
2019-04-05T05:27:30.820Z,100.20
2019-04-05T05:28:32.775Z,101.90
2019-04-05T05:29:30.765Z,98.50
2019-04-05T05:30:30.735Z,99.70
2019-04-05T05:31:30.708Z,96.00
2019-04-05T05:32:30.684Z,98.90
2019-04-05T05:33:30.651Z,101.30
2019-04-05T05:34:30.626Z,96.20
2019-04-05T05:35:30.598Z,101.80
2019-04-05T05:36:30.571Z,98.00
2019-04-05T05:37:32.776Z,98.20
2019-04-05T05:38:30.514Z,95.50
2019-04-05T05:39:30.488Z,96.40
2019-04-05T05:40:35.226Z,96.50
2019-04-05T05:41:30.430Z,96.00
2019-04-05T05:42:30.403Z,100.20
2019-04-05T05:43:30.375Z,96.30
2019-04-05T05:44:30.350Z,92.30
2019-04-05T05:45:30.316Z,94.60
2019-04-05T05:46:30.304Z,94.90
2019-04-05T05:47:30.262Z,96.50
2019-04-05T05:48:31.042Z,93.10
2019-04-05T05:49:30.207Z,91.00
2019-04-05T05:50:30.183Z,94.20
2019-04-05T05:51:30.152Z,91.70
2019-04-05T05:52:30.125Z,92.30
2019-04-05T05:53:30.096Z,92.30
2019-04-05T05:54:30.071Z,93.60
2019-04-05T05:55:30.367Z,91.00
2019-04-05T05:56:30.013Z,92.60
2019-04-05T05:57:29.987Z,89.30
2019-04-05T05:58:29.958Z,92.70
2019-04-05T05:59:30.211Z,90.60
2019-04-05T06:00:31.094Z,92.00
2019-04-05T06:01:29.874Z,89.40
2019-04-05T06:02:29.848Z,89.80
2019-04-05T06:03:29.821Z,87.90
2019-04-05T06:04:29.790Z,91.60
2019-04-05T06:05:29.762Z,91.90
2019-04-05T06:06:29.734Z,90.90
2019-04-05T06:07:29.708Z,91.50
2019-04-05T06:08:29.680Z,92.00
2019-04-05T06:09:29.654Z,90.70
2019-04-05T06:10:29.624Z,88.50
2019-04-05T06:11:29.596Z,86.30
2019-04-05T06:12:29.569Z,88.40
2019-04-05T06:13:29.541Z,86.50
2019-04-05T06:14:29.514Z,82.70
2019-04-05T06:15:29.487Z,90.10
2019-04-05T06:16:29.461Z,89.30
2019-04-05T06:17:29.431Z,85.60
2019-04-05T06:18:29.404Z,87.50
2019-04-05T06:19:29.377Z,86.60
2019-04-05T06:20:29.350Z,87.70
2019-04-05T06:21:29.321Z,88.10
2019-04-05T06:22:29.292Z,89.60
2019-04-05T06:23:33.826Z,89.90
2019-04-05T06:24:29.237Z,88.70
2019-04-05T06:25:29.211Z,86.50
2019-04-05T06:26:29.182Z,85.40
2019-04-05T06:27:29.158Z,87.50
2019-04-05T06:28:29.195Z,88.30
2019-04-05T06:29:29.099Z,87.90
2019-04-05T06:30:29.199Z,88.70
2019-04-05T06:31:29.044Z,88.80
2019-04-05T06:32:29.018Z,92.40
2019-04-05T06:33:31.787Z,89.50
2019-04-05T06:34:28.963Z,89.70
2019-04-05T06:35:28.939Z,87.70
2019-04-05T06:36:28.906Z,86.00
2019-04-05T06:37:28.879Z,86.80
2019-04-05T06:38:28.852Z,82.20
2019-04-05T06:39:28.824Z,83.30
2019-04-05T06:40:40.239Z,80.80
2019-04-05T06:41:28.768Z,83.20
2019-04-05T06:42:28.741Z,85.90
2019-04-05T06:43:28.715Z,82.60
2019-04-05T06:44:28.692Z,82.40
2019-04-05T06:45:28.656Z,81.80
2019-04-05T06:46:28.631Z,80.40
2019-04-05T06:47:28.602Z,80.80
2019-04-05T06:48:29.545Z,81.60
2019-04-05T06:49:28.553Z,82.80
2019-04-05T06:50:28.522Z,84.80
2019-04-05T06:51:28.497Z,82.50
2019-04-05T06:52:28.467Z,82.20
2019-04-05T06:53:28.440Z,81.00
2019-04-05T06:54:28.411Z,82.40
2019-04-05T06:55:28.386Z,76.00
2019-04-05T06:56:28.357Z,82.70
2019-04-05T06:57:28.481Z,80.00
2019-04-05T06:58:29.539Z,83.70
2019-04-05T06:59:28.277Z,77.40
2019-04-05T07:00:28.248Z,78.80
2019-04-05T07:01:28.222Z,77.40
2019-04-05T07:02:28.193Z,80.80
2019-04-05T07:03:28.169Z,80.00
2019-04-05T07:04:30.858Z,78.30
2019-04-05T07:05:28.120Z,80.80
2019-04-05T07:06:28.089Z,79.50
2019-04-05T07:07:28.058Z,79.90
2019-04-05T07:08:28.032Z,79.80
2019-04-05T07:09:28.005Z,77.70
2019-04-05T07:10:27.977Z,79.20
2019-04-05T07:11:27.949Z,78.10
2019-04-05T07:12:27.924Z,76.30
2019-04-05T07:13:27.900Z,78.10
2019-04-05T07:14:27.868Z,76.90
2019-04-05T07:15:27.842Z,76.50
2019-04-05T07:16:27.815Z,77.30
2019-04-05T07:17:27.787Z,79.80
2019-04-05T07:18:35.532Z,75.20
2019-04-05T07:19:27.732Z,76.20
2019-04-05T07:20:27.707Z,73.70
2019-04-05T07:21:27.675Z,73.70
2019-04-05T07:22:38.529Z,76.40
2019-04-05T07:23:27.624Z,71.60
2019-04-05T07:24:27.600Z,73.80
2019-04-05T07:25:29.375Z,76.60
2019-04-05T07:26:27.542Z,72.30
2019-04-05T07:27:27.513Z,72.40
2019-04-05T07:28:27.487Z,70.20
2019-04-05T07:29:27.467Z,71.50
2019-04-05T07:30:28.828Z,72.60
2019-04-05T07:31:27.406Z,72.10
2019-04-05T07:32:27.379Z,73.60
2019-04-05T07:33:27.354Z,70.30
2019-04-05T07:34:27.324Z,71.80
2019-04-05T07:35:33.311Z,69.40
2019-04-05T07:36:27.272Z,73.40
2019-04-05T07:37:27.244Z,73.20
2019-04-05T07:38:27.218Z,71.20
2019-04-05T07:39:27.191Z,71.00
2019-04-05T07:40:27.163Z,69.80
2019-04-05T07:41:27.137Z,68.50
2019-04-05T07:42:27.166Z,67.60
2019-04-05T07:43:27.082Z,67.30
2019-04-05T07:44:27.056Z,68.50
2019-04-05T07:45:27.030Z,69.00
2019-04-05T07:46:27.004Z,68.20
2019-04-05T07:47:26.975Z,66.30
2019-04-05T07:48:26.947Z,64.80
2019-04-05T07:49:26.922Z,70.60
2019-04-05T07:50:26.894Z,67.70
2019-04-05T07:51:26.869Z,70.00
2019-04-05T07:52:26.842Z,68.90
2019-04-05T07:53:26.815Z,66.50
2019-04-05T07:54:26.787Z,64.50
2019-04-05T07:55:26.762Z,67.40
2019-04-05T07:56:26.734Z,69.10
2019-04-05T07:57:26.709Z,71.60
2019-04-05T07:58:26.682Z,70.50
2019-04-05T07:59:26.657Z,69.00
2019-04-05T08:00:26.630Z,69.00
2019-04-05T08:01:26.604Z,69.00
2019-04-05T08:02:26.575Z,70.20
2019-04-05T08:03:26.550Z,71.90
2019-04-05T08:04:26.524Z,69.00
2019-04-05T08:05:26.498Z,68.50
2019-04-05T08:06:26.470Z,70.20
2019-04-05T08:07:26.443Z,67.80
2019-04-05T08:08:26.421Z,68.80
2019-04-05T08:09:26.389Z,68.30
2019-04-05T08:10:26.363Z,67.10
2019-04-05T08:11:26.339Z,69.70
2019-04-05T08:12:26.313Z,69.30
2019-04-05T08:13:26.284Z,70.50
2019-04-05T08:14:26.262Z,71.70
2019-04-05T08:15:26.234Z,74.20
2019-04-05T08:16:26.207Z,72.70
2019-04-05T08:17:26.177Z,70.40
2019-04-05T08:18:26.151Z,69.30
2019-04-05T08:19:26.124Z,70.10
2019-04-05T08:20:26.100Z,71.20
2019-04-05T08:21:26.073Z,67.10
2019-04-05T08:22:26.046Z,69.20
2019-04-05T08:23:26.020Z,72.10
2019-04-05T08:24:25.994Z,67.60
2019-04-05T08:25:25.965Z,68.30
2019-04-05T08:26:25.940Z,69.10
2019-04-05T08:27:25.915Z,71.70
2019-04-05T08:28:25.888Z,66.60
2019-04-05T08:29:25.862Z,68.40
2019-04-05T08:30:25.836Z,67.10
2019-04-05T08:31:25.808Z,70.20
2019-04-05T08:32:25.783Z,68.20
2019-04-05T08:33:25.756Z,72.10
2019-04-05T08:34:25.747Z,70.90
2019-04-05T08:35:25.702Z,70.00
2019-04-05T08:36:25.677Z,69.30
2019-04-05T08:37:25.650Z,70.90
2019-04-05T08:38:25.626Z,69.00
2019-04-05T08:39:25.602Z,65.40
2019-04-05T08:40:25.573Z,65.10
2019-04-05T08:41:25.557Z,67.30
2019-04-05T08:42:25.521Z,67.70
2019-04-05T08:43:25.493Z,69.40
2019-04-05T08:44:25.469Z,68.50
2019-04-05T08:45:25.443Z,68.40
2019-04-05T08:46:25.417Z,68.80
2019-04-05T08:47:25.393Z,68.20
2019-04-05T08:48:25.365Z,69.70
2019-04-05T08:49:25.337Z,67.40
2019-04-05T08:50:25.312Z,66.70
2019-04-05T08:51:25.287Z,66.20
2019-04-05T08:52:27.010Z,67.00
2019-04-05T08:53:25.235Z,63.20
2019-04-05T08:54:32.489Z,62.00
2019-04-05T08:55:25.183Z,64.00
2019-04-05T08:56:25.158Z,63.70
2019-04-05T08:57:25.130Z,66.10
2019-04-05T08:58:33.349Z,65.90
2019-04-05T08:59:25.081Z,65.90
2019-04-05T09:00:25.055Z,63.70
2019-04-05T09:01:25.030Z,63.60
2019-04-05T09:02:25.003Z,66.00
2019-04-05T09:03:24.978Z,63.10
2019-04-05T09:04:24.953Z,64.70
2019-04-05T09:05:24.925Z,63.10
2019-04-05T09:06:24.903Z,60.40
2019-04-05T09:07:24.875Z,60.30
2019-04-05T09:08:24.857Z,64.10
2019-04-05T09:09:24.821Z,63.80
2019-04-05T09:10:24.799Z,63.40
2019-04-05T09:11:24.772Z,63.30
2019-04-05T09:12:24.749Z,60.50
2019-04-05T09:13:24.721Z,61.80
2019-04-05T09:14:24.696Z,63.30
2019-04-05T09:15:24.669Z,63.80
2019-04-05T09:16:24.650Z,64.10
2019-04-05T09:17:24.619Z,61.90
2019-04-05T09:18:24.593Z,62.30
2019-04-05T09:19:24.571Z,63.30
2019-04-05T09:20:24.541Z,64.10
2019-04-05T09:21:24.517Z,64.30
2019-04-05T09:22:24.492Z,64.10
2019-04-05T09:23:24.488Z,62.60
2019-04-05T09:24:24.443Z,60.50
2019-04-05T09:25:24.414Z,61.50
2019-04-05T09:26:24.394Z,62.20
2019-04-05T09:27:24.366Z,61.10
2019-04-05T09:28:24.341Z,59.50
2019-04-05T09:29:24.316Z,60.60
2019-04-05T09:30:24.291Z,62.60
2019-04-05T09:31:24.267Z,59.60
2019-04-05T09:32:24.244Z,59.60
2019-04-05T09:33:24.225Z,59.90
2019-04-05T09:34:24.193Z,61.20
2019-04-05T09:35:24.169Z,61.40
2019-04-05T09:36:24.142Z,60.30
2019-04-05T09:37:24.118Z,60.70
2019-04-05T09:38:24.096Z,60.60
2019-04-05T09:39:24.071Z,60.30
2019-04-05T09:40:24.047Z,58.70
2019-04-05T09:41:24.021Z,58.20
2019-04-05T09:42:23.998Z,57.20
2019-04-05T09:43:23.972Z,57.80
2019-04-05T09:44:24.039Z,57.80
2019-04-05T09:45:23.927Z,56.60
2019-04-05T09:46:23.901Z,60.40
2019-04-05T09:47:23.876Z,57.10
2019-04-05T09:48:23.852Z,58.20
2019-04-05T09:49:35.828Z,60.60
2019-04-05T09:50:23.803Z,58.10
2019-04-05T09:51:23.779Z,57.20
2019-04-05T09:52:23.755Z,58.80
2019-04-05T09:53:23.728Z,57.10
2019-04-05T09:54:23.705Z,58.70
2019-04-05T09:55:23.679Z,58.20
2019-04-05T09:56:23.656Z,60.20
2019-04-05T09:57:23.634Z,59.20
2019-04-05T09:58:23.606Z,60.30
2019-04-05T09:59:23.582Z,58.50
2019-04-05T10:00:23.558Z,57.60
2019-04-05T10:01:23.539Z,58.70
2019-04-05T10:02:23.511Z,57.80
2019-04-05T10:03:23.484Z,58.90
2019-04-05T10:04:23.461Z,58.20
2019-04-05T10:05:23.436Z,56.90
2019-04-05T10:06:23.410Z,57.30
2019-04-05T10:07:23.388Z,57.90
2019-04-05T10:08:23.370Z,57.80
2019-04-05T10:09:23.338Z,57.90
2019-04-05T10:10:23.318Z,56.30
2019-04-05T10:11:23.289Z,57.30
2019-04-05T10:12:23.265Z,55.00
2019-04-05T10:13:23.241Z,58.20
2019-04-05T10:14:23.218Z,58.00
2019-04-05T10:15:23.195Z,56.90
2019-04-05T10:16:23.174Z,55.40
2019-04-05T10:17:23.144Z,55.20
2019-04-05T10:18:23.122Z,58.30
2019-04-05T10:19:23.098Z,55.80
2019-04-05T10:20:23.074Z,57.00
2019-04-05T10:21:23.049Z,55.90
2019-04-05T10:22:23.027Z,58.60
2019-04-05T10:23:23.005Z,55.90
2019-04-05T10:24:22.979Z,56.80
2019-04-05T10:25:22.956Z,58.80
2019-04-05T10:26:22.931Z,59.30
2019-04-05T10:27:23.189Z,57.70
2019-04-05T10:28:22.884Z,58.30
2019-04-05T10:29:22.862Z,57.30
2019-04-05T10:30:22.835Z,59.30
2019-04-05T10:31:22.814Z,59.60
2019-04-05T10:32:22.788Z,58.20
2019-04-05T10:33:22.764Z,58.50
2019-04-05T10:34:22.742Z,58.20
2019-04-05T10:35:22.715Z,57.50
2019-04-05T10:36:22.696Z,54.70
2019-04-05T10:37:22.673Z,56.10
2019-04-05T10:38:22.649Z,55.90
2019-04-05T10:39:22.622Z,57.80
2019-04-05T10:40:22.599Z,56.50
2019-04-05T10:41:23.174Z,58.40
2019-04-05T10:42:22.554Z,54.90
2019-04-05T10:43:22.532Z,54.50
2019-04-05T10:44:22.509Z,56.40
2019-04-05T10:45:22.484Z,55.10
2019-04-05T10:46:22.460Z,55.50
2019-04-05T10:47:22.438Z,54.20
2019-04-05T10:48:22.415Z,54.50
2019-04-05T10:49:22.395Z,54.40
2019-04-05T10:50:22.368Z,53.90
2019-04-05T10:51:22.344Z,56.60
2019-04-05T10:52:22.324Z,54.10
2019-04-05T10:53:22.300Z,54.60
2019-04-05T10:54:22.278Z,54.20
2019-04-05T10:55:22.256Z,55.60
2019-04-05T10:56:22.232Z,56.20
2019-04-05T10:57:22.212Z,56.60
2019-04-05T10:58:22.193Z,56.70
2019-04-05T10:59:22.163Z,57.40
2019-04-05T11:00:22.141Z,57.50
2019-04-05T11:01:22.117Z,58.60
2019-04-05T11:02:22.102Z,57.60
2019-04-05T11:03:22.076Z,55.90
2019-04-05T11:04:22.049Z,54.60
2019-04-05T11:05:22.025Z,56.10
2019-04-05T11:06:22.001Z,55.90
2019-04-05T11:07:21.981Z,55.50
2019-04-05T11:08:21.960Z,56.10
2019-04-05T11:09:21.934Z,57.10
2019-04-05T11:10:21.910Z,56.10
2019-04-05T11:11:21.886Z,55.60
2019-04-05T11:12:21.867Z,55.60
2019-04-05T11:13:21.841Z,55.50
2019-04-05T11:14:21.818Z,55.10
2019-04-05T11:15:21.795Z,55.20
2019-04-05T11:16:21.776Z,55.60
2019-04-05T11:17:21.747Z,56.70
2019-04-05T11:18:21.724Z,56.30
2019-04-05T11:19:21.702Z,55.50
2019-04-05T11:20:22.222Z,55.40
2019-04-05T11:21:21.658Z,55.40
2019-04-05T11:22:21.632Z,55.00
2019-04-05T11:23:21.905Z,54.50
2019-04-05T11:24:21.587Z,58.20
2019-04-05T11:25:21.560Z,56.70
2019-04-05T11:26:21.540Z,56.20
2019-04-05T11:27:21.518Z,57.00
2019-04-05T11:28:21.492Z,57.00
2019-04-05T11:29:21.467Z,56.20
2019-04-05T11:30:21.445Z,56.20
2019-04-05T11:31:21.421Z,56.00
2019-04-05T11:32:21.400Z,54.90
2019-04-05T11:33:21.376Z,55.50
2019-04-05T11:34:21.353Z,56.10
2019-04-05T11:35:21.329Z,56.00
2019-04-05T11:36:21.307Z,57.10
2019-04-05T11:37:21.285Z,55.10
2019-04-05T11:38:24.105Z,54.90
2019-04-05T11:39:21.237Z,54.30
2019-04-05T11:40:24.026Z,56.20
2019-04-05T11:41:21.190Z,54.80
2019-04-05T11:42:21.172Z,56.00
2019-04-05T11:43:21.151Z,56.40
2019-04-05T11:44:21.118Z,54.10
2019-04-05T11:45:21.095Z,54.70
2019-04-05T11:46:21.074Z,54.40
2019-04-05T11:47:21.052Z,55.00
2019-04-05T11:48:21.028Z,55.30
2019-04-05T11:49:21.005Z,55.70
2019-04-05T11:50:33.570Z,55.20
2019-04-05T11:51:20.958Z,55.60
2019-04-05T11:52:20.936Z,54.00
2019-04-05T11:53:22.098Z,53.10
2019-04-05T11:54:20.891Z,53.30
2019-04-05T11:55:20.870Z,54.80
2019-04-05T11:56:20.849Z,52.50
2019-04-05T11:57:20.822Z,53.30
2019-04-05T11:58:20.801Z,53.10
2019-04-05T11:59:20.776Z,50.20
2019-04-05T12:00:20.754Z,53.70
2019-04-05T12:01:23.368Z,53.90
2019-04-05T12:02:20.711Z,52.00
2019-04-05T12:03:20.695Z,54.60
2019-04-05T12:04:20.664Z,54.30
2019-04-05T12:05:22.865Z,54.10
2019-04-05T12:06:20.620Z,53.00
2019-04-05T12:07:24.044Z,51.40
2019-04-05T12:08:20.575Z,53.60
2019-04-05T12:09:20.550Z,53.90
2019-04-05T12:10:20.531Z,54.90
2019-04-05T12:11:20.507Z,55.20
2019-04-05T12:12:20.487Z,54.90
2019-04-05T12:13:20.461Z,55.90
2019-04-05T12:14:29.947Z,55.90
2019-04-05T12:15:20.417Z,56.50
2019-04-05T12:16:20.396Z,54.70
2019-04-05T12:17:20.390Z,56.00
2019-04-05T12:18:20.349Z,56.70
2019-04-05T12:19:20.327Z,57.40
2019-04-05T12:20:20.306Z,56.60
2019-04-05T12:21:20.995Z,55.90
2019-04-05T12:22:20.260Z,54.20
2019-04-05T12:23:20.234Z,56.70
2019-04-05T12:24:20.215Z,56.70
2019-04-05T12:25:20.190Z,55.10
2019-04-05T12:26:20.167Z,56.60
2019-04-05T12:27:20.888Z,55.10
2019-04-05T12:28:20.128Z,54.50
2019-04-05T12:29:20.098Z,54.20
2019-04-05T12:30:20.075Z,51.40
2019-04-05T12:31:20.053Z,53.40
2019-04-05T12:32:32.519Z,53.10
2019-04-05T12:33:20.444Z,54.70
2019-04-05T12:34:22.209Z,54.30
2019-04-05T12:35:21.540Z,53.20
2019-04-05T12:36:21.985Z,53.70
2019-04-05T12:37:21.873Z,53.20
2019-04-05T12:38:28.319Z,53.20
2019-04-05T12:39:19.871Z,52.60
2019-04-05T12:40:19.847Z,55.00
2019-04-05T12:41:19.824Z,52.60
2019-04-05T12:42:19.803Z,53.40
2019-04-05T12:43:19.778Z,53.70
2019-04-05T12:44:19.756Z,53.40
2019-04-05T12:45:19.732Z,53.30